Time;durP1;ratioP1;P1;durP2;ratioP2;P2;SDS_P1;SDS_P2;PMS_P1;PMS_P2;Temp;Humidity;BMP_temperature;BMP_pressure;BME280_temperature;BME280_humidity;BME280_pressure;Samples;Min_cycle;Max_cycle;Signal;HPM_P1;HPM_P2
2022/10/31 00:02:20;;;;;;;2.92;1.67;;;;;;;;;;5052884;28;20063;-67
2022/10/31 00:04:49;;;;;;;3.30;1.42;;;;;;;;;;5002712;28;20056;-67
2022/10/31 00:07:20;;;;;;;4.15;1.75;;;;;;;;;;5071805;28;20404;-67
2022/10/31 00:09:49;;;;;;;4.03;1.55;;;;;;;;;;5036432;28;20063;-67
2022/10/31 00:12:19;;;;;;;6.78;1.73;;;;;;;;;;5071352;28;20047;-68
2022/10/31 00:14:49;;;;;;;3.72;1.67;;;;;;;;;;5071514;28;20392;-67
2022/10/31 00:17:19;;;;;;;10.90;2.67;;;;;;;;;;5048690;28;20492;-67
2022/10/31 00:19:49;;;;;;;12.70;4.80;;;;;;;;;;5063765;28;20094;-67
2022/10/31 00:22:18;;;;;;;10.43;3.58;;;;;;;;;;5035817;28;20068;-67
2022/10/31 00:24:48;;;;;;;7.85;3.10;;;;;;;;;;5069010;28;20052;-67
2022/10/31 00:27:18;;;;;;;10.07;2.97;;;;;;;;;;5028700;28;20049;-67
2022/10/31 00:29:48;;;;;;;6.60;2.70;;;;;;;;;;5029076;28;20061;-68
2022/10/31 00:32:18;;;;;;;5.35;2.08;;;;;;;;;;5008960;28;20045;-67
2022/10/31 00:34:48;;;;;;;6.82;2.50;;;;;;;;;;4970005;28;20050;-68
2022/10/31 00:37:18;;;;;;;5.65;1.90;;;;;;;;;;4950673;29;20054;-67
2022/10/31 00:39:49;;;;;;;6.57;2.35;;;;;;;;;;4950696;29;20066;-66
2022/10/31 00:42:19;;;;;;;6.18;2.13;;;;;;;;;;4931103;29;20047;-68
2022/10/31 00:44:48;;;;;;;4.72;1.92;;;;;;;;;;4931683;29;20063;-67
2022/10/31 00:47:18;;;;;;;5.38;2.00;;;;;;;;;;4931667;29;20064;-68
2022/10/31 00:49:48;;;;;;;4.55;1.90;;;;;;;;;;4915566;29;20055;-67
2022/10/31 00:52:19;;;;;;;7.68;1.90;;;;;;;;;;4930874;29;20056;-68
2022/10/31 00:55:09;;;;;;;6.85;2.20;;;;;;;;;;4878180;29;20052;-67
2022/10/31 00:57:39;;;;;;;6.68;2.22;;;;;;;;;;4911815;29;20523;-68
2022/10/31 01:00:10;;;;;;;5.07;1.95;;;;;;;;;;4908996;29;20441;-67
2022/10/31 01:02:41;;;;;;;3.35;1.73;;;;;;;;;;4929996;29;20055;-68
2022/10/31 01:05:12;;;;;;;4.47;1.90;;;;;;;;;;4930907;29;20055;-67
2022/10/31 01:07:44;;;;;;;4.03;1.85;;;;;;;;;;4950133;28;20476;-67
2022/10/31 01:10:14;;;;;;;4.07;1.55;;;;;;;;;;4962462;28;20063;-67
2022/10/31 01:12:47;;;;;;;4.63;1.88;;;;;;;;;;4969346;28;20058;-67
2022/10/31 01:15:23;;;;;;;6.32;1.73;;;;;;;;;;4950267;28;20376;-67
2022/10/31 01:17:53;;;;;;;6.28;1.90;;;;;;;;;;4964973;28;20066;-67
2022/10/31 01:20:23;;;;;;;4.97;2.10;;;;;;;;;;4960019;28;20066;-67
2022/10/31 01:22:54;;;;;;;5.03;1.95;;;;;;;;;;4954201;29;20067;-67
2022/10/31 01:25:25;;;;;;;9.13;2.00;;;;;;;;;;4954138;29;20055;-67
2022/10/31 01:27:55;;;;;;;3.88;1.83;;;;;;;;;;4972932;28;20074;-69
2022/10/31 01:30:25;;;;;;;4.60;2.05;;;;;;;;;;4959934;28;20434;-68
2022/10/31 01:32:55;;;;;;;4.05;1.88;;;;;;;;;;4953662;29;20063;-67
2022/10/31 01:35:25;;;;;;;8.93;1.60;;;;;;;;;;4969728;28;20197;-67
2022/10/31 01:37:55;;;;;;;3.95;1.92;;;;;;;;;;4953881;29;20180;-68
2022/10/31 01:40:30;;;;;;;3.25;1.52;;;;;;;;;;4943072;29;20059;-68
2022/10/31 01:43:00;;;;;;;3.05;1.67;;;;;;;;;;4934584;29;20392;-68
2022/10/31 01:45:30;;;;;;;4.28;2.03;;;;;;;;;;4945282;29;20442;-68
2022/10/31 01:48:00;;;;;;;5.30;1.88;;;;;;;;;;4953773;29;20070;-67
2022/10/31 01:50:38;;;;;;;4.50;1.98;;;;;;;;;;4972847;28;20046;-68
2022/10/31 01:53:11;;;;;;;4.97;1.90;;;;;;;;;;5014756;28;20049;-67
2022/10/31 01:55:45;;;;;;;4.55;1.98;;;;;;;;;;5011690;28;20050;-68
2022/10/31 01:58:23;;;;;;;6.22;2.53;;;;;;;;;;4980397;28;20054;-67
2022/10/31 02:00:57;;;;;;;7.40;2.00;;;;;;;;;;4972903;28;20054;-68
2022/10/31 02:03:33;;;;;;;5.32;1.70;;;;;;;;;;4957375;28;20050;-67
2022/10/31 02:06:05;;;;;;;5.07;1.90;;;;;;;;;;4986447;28;20556;-67
2022/10/31 02:08:37;;;;;;;4.40;1.60;;;;;;;;;;4991874;28;20051;-67
2022/10/31 02:11:08;;;;;;;3.72;1.60;;;;;;;;;;4972392;28;20059;-68
2022/10/31 02:13:39;;;;;;;3.58;1.27;;;;;;;;;;4952823;29;20047;-67
2022/10/31 02:16:10;;;;;;;2.88;1.10;;;;;;;;;;4914607;29;20059;-67
2022/10/31 02:18:40;;;;;;;3.60;1.00;;;;;;;;;;4914444;29;20444;-67
2022/10/31 02:21:22;;;;;;;3.10;1.33;;;;;;;;;;4895768;29;20488;-67
2022/10/31 02:24:24;;;;;;;3.10;1.00;;;;;;;;;;4895936;29;20063;-67
2022/10/31 02:27:31;;;;;;;3.17;1.30;;;;;;;;;;4876967;29;20065;-67
2022/10/31 02:30:10;;;;;;;4.78;1.50;;;;;;;;;;4857803;29;20053;-67
2022/10/31 02:33:15;;;;;;;3.67;1.73;;;;;;;;;;4885544;29;20536;-67
2022/10/31 02:35:55;;;;;;;3.15;1.58;;;;;;;;;;4933226;29;20407;-68
2022/10/31 02:38:49;;;;;;;7.20;1.90;;;;;;;;;;4933156;29;20047;-67
2022/10/31 02:41:50;;;;;;;5.40;1.90;;;;;;;;;;4924695;29;20052;-68
2022/10/31 02:44:38;;;;;;;6.15;2.83;;;;;;;;;;4952376;28;20043;-67
2022/10/31 02:47:37;;;;;;;7.10;2.28;;;;;;;;;;4932861;29;20052;-67
2022/10/31 02:50:08;;;;;;;5.35;2.50;;;;;;;;;;4823918;29;20054;-67
2022/10/31 02:52:39;;;;;;;5.22;2.47;;;;;;;;;;4838739;29;20514;-67
2022/10/31 02:55:22;;;;;;;6.40;2.70;;;;;;;;;;4785328;29;20097;-67
2022/10/31 02:58:11;;;;;;;11.45;2.20;;;;;;;;;;4782858;30;20496;-67
2022/10/31 03:01:09;;;;;;;9.88;2.70;;;;;;;;;;4794348;29;20225;-67
2022/10/31 03:04:11;;;;;;;5.65;2.30;;;;;;;;;;4800596;29;20063;-70
2022/10/31 03:06:55;;;;;;;5.03;2.33;;;;;;;;;;4821376;29;20055;-68
2022/10/31 03:09:34;;;;;;;4.80;2.45;;;;;;;;;;4783837;29;20050;-67
2022/10/31 03:12:36;;;;;;;4.63;2.03;;;;;;;;;;4795608;29;20063;-69
2022/10/31 03:15:13;;;;;;;5.85;2.80;;;;;;;;;;4751783;30;20048;-68
2022/10/31 03:17:51;;;;;;;6.03;2.20;;;;;;;;;;4802581;29;20055;-67
2022/10/31 03:20:30;;;;;;;4.75;2.22;;;;;;;;;;4820446;29;20109;-68
2022/10/31 03:23:02;;;;;;;8.13;2.30;;;;;;;;;;4804899;29;20537;-68
2022/10/31 03:25:35;;;;;;;8.40;2.33;;;;;;;;;;4821010;29;20054;-67
2022/10/31 03:28:07;;;;;;;4.72;2.30;;;;;;;;;;4850223;29;20505;-68
2022/10/31 03:30:41;;;;;;;6.13;2.80;;;;;;;;;;4868737;29;20061;-67
2022/10/31 03:33:18;;;;;;;4.93;2.30;;;;;;;;;;4891476;29;20538;-68
2022/10/31 03:35:52;;;;;;;9.02;2.08;;;;;;;;;;4875535;29;20055;-67
2022/10/31 03:38:23;;;;;;;7.13;2.28;;;;;;;;;;4875820;29;20065;-68
2022/10/31 03:40:56;;;;;;;4.93;2.20;;;;;;;;;;4861840;29;20053;-68
2022/10/31 03:43:32;;;;;;;6.55;2.60;;;;;;;;;;4877498;29;20049;-67
2022/10/31 03:46:04;;;;;;;6.75;2.25;;;;;;;;;;4874450;29;20045;-67
2022/10/31 03:48:34;;;;;;;7.95;2.95;;;;;;;;;;4857368;29;20060;-67
2022/10/31 03:51:20;;;;;;;5.50;2.63;;;;;;;;;;4875508;29;20064;-67
2022/10/31 03:54:22;;;;;;;6.18;2.60;;;;;;;;;;4894199;29;20452;-68
2022/10/31 03:57:09;;;;;;;13.88;3.00;;;;;;;;;;4894049;29;20044;-68
2022/10/31 03:59:47;;;;;;;8.00;3.08;;;;;;;;;;4894346;29;20061;-67
2022/10/31 04:02:22;;;;;;;11.95;3.90;;;;;;;;;;4910647;29;20417;-67
2022/10/31 04:04:52;;;;;;;9.88;2.80;;;;;;;;;;4927673;29;20396;-67
2022/10/31 04:07:28;;;;;;;7.72;2.70;;;;;;;;;;4915497;29;20071;-68
2022/10/31 04:10:02;;;;;;;5.28;2.35;;;;;;;;;;4932008;29;20535;-68
2022/10/31 04:12:34;;;;;;;8.02;2.47;;;;;;;;;;4950879;29;20051;-68
2022/10/31 04:15:19;;;;;;;7.65;2.63;;;;;;;;;;4931639;29;20059;-67
2022/10/31 04:17:52;;;;;;;5.07;2.42;;;;;;;;;;4943510;29;20051;-67
2022/10/31 04:20:41;;;;;;;5.10;2.40;;;;;;;;;;4931385;29;20563;-67
2022/10/31 04:23:25;;;;;;;6.55;2.50;;;;;;;;;;4954256;28;20091;-68
2022/10/31 04:25:55;;;;;;;6.45;2.80;;;;;;;;;;4931508;29;20051;-68
2022/10/31 04:28:25;;;;;;;7.78;3.15;;;;;;;;;;4905394;29;20051;-68
2022/10/31 04:30:56;;;;;;;8.18;3.42;;;;;;;;;;4902856;29;20052;-67
2022/10/31 04:33:26;;;;;;;9.02;4.13;;;;;;;;;;4909090;29;20064;-67
2022/10/31 04:35:56;;;;;;;9.57;3.67;;;;;;;;;;4893807;29;20068;-68
2022/10/31 04:38:25;;;;;;;8.25;3.90;;;;;;;;;;4896207;29;20048;-67
2022/10/31 04:40:55;;;;;;;7.97;3.80;;;;;;;;;;4895556;29;20063;-67
2022/10/31 04:44:03;;;;;;;7.97;3.83;;;;;;;;;;4836423;29;20078;-68
2022/10/31 04:46:34;;;;;;;8.50;3.38;;;;;;;;;;4820071;29;20062;-67
2022/10/31 04:49:05;;;;;;;7.97;3.55;;;;;;;;;;4800844;29;20063;-67
2022/10/31 04:51:36;;;;;;;8.43;3.92;;;;;;;;;;4802715;29;20077;-69
2022/10/31 04:54:06;;;;;;;9.77;3.88;;;;;;;;;;4805533;29;20059;-68
2022/10/31 04:56:54;;;;;;;8.32;3.90;;;;;;;;;;4831123;29;20711;-67
2022/10/31 04:59:24;;;;;;;13.50;3.83;;;;;;;;;;4841495;29;20064;-67
2022/10/31 05:01:54;;;;;;;13.98;3.70;;;;;;;;;;4841353;29;20066;-68
2022/10/31 05:04:37;;;;;;;15.25;3.92;;;;;;;;;;4875465;29;20056;-68
2022/10/31 05:07:08;;;;;;;8.50;3.63;;;;;;;;;;4898333;29;20064;-68
2022/10/31 05:09:39;;;;;;;15.85;4.00;;;;;;;;;;4878153;29;20452;-68
2022/10/31 05:12:08;;;;;;;8.55;3.53;;;;;;;;;;4896651;29;20063;-68
2022/10/31 05:14:56;;;;;;;10.98;3.42;;;;;;;;;;4888493;29;20053;-67
2022/10/31 05:17:59;;;;;;;10.85;3.60;;;;;;;;;;4901849;29;20063;-67
2022/10/31 05:20:49;;;;;;;10.73;3.10;;;;;;;;;;4935609;29;20415;-68
2022/10/31 05:23:39;;;;;;;8.25;3.45;;;;;;;;;;4934711;29;20062;-68
2022/10/31 05:26:16;;;;;;;14.10;3.78;;;;;;;;;;4918978;29;20052;-67
2022/10/31 05:28:48;;;;;;;9.63;4.60;;;;;;;;;;4921383;29;20059;-68
2022/10/31 05:31:18;;;;;;;12.55;4.07;;;;;;;;;;4918939;29;20059;-68
2022/10/31 05:33:50;;;;;;;10.40;3.47;;;;;;;;;;4934453;29;20063;-68
2022/10/31 05:36:40;;;;;;;8.38;3.60;;;;;;;;;;4947245;28;20055;-68
2022/10/31 05:39:18;;;;;;;14.02;3.70;;;;;;;;;;4946092;29;20427;-67
2022/10/31 05:41:52;;;;;;;8.13;3.80;;;;;;;;;;4909247;29;20044;-67
2022/10/31 05:44:26;;;;;;;10.40;3.63;;;;;;;;;;4896366;29;20052;-68
2022/10/31 05:47:20;;;;;;;7.13;3.70;;;;;;;;;;4905629;29;20056;-68
2022/10/31 05:49:56;;;;;;;12.60;3.53;;;;;;;;;;4876216;29;20057;-68
2022/10/31 05:52:45;;;;;;;7.88;3.30;;;;;;;;;;4859660;29;20053;-68
2022/10/31 05:55:27;;;;;;;7.43;2.95;;;;;;;;;;4908699;29;20516;-68
2022/10/31 05:58:13;;;;;;;7.93;2.90;;;;;;;;;;4877802;29;20057;-68
2022/10/31 06:00:50;;;;;;;5.47;2.35;;;;;;;;;;4896116;29;20095;-69
2022/10/31 06:03:20;;;;;;;6.95;2.92;;;;;;;;;;4881443;29;20053;-68
2022/10/31 06:05:55;;;;;;;8.07;3.25;;;;;;;;;;4882485;29;20127;-68
2022/10/31 06:08:30;;;;;;;6.55;3.17;;;;;;;;;;4877550;29;20049;-67
2022/10/31 06:11:05;;;;;;;7.53;3.53;;;;;;;;;;4831448;29;20415;-68
2022/10/31 06:13:53;;;;;;;6.78;2.95;;;;;;;;;;4869024;29;20414;-68
2022/10/31 06:16:28;;;;;;;9.38;3.30;;;;;;;;;;4843126;29;20247;-68
2022/10/31 06:19:03;;;;;;;5.60;3.00;;;;;;;;;;4811998;29;20081;-68
2022/10/31 06:21:33;;;;;;;8.32;3.80;;;;;;;;;;4837328;29;20069;-67
2022/10/31 06:24:04;;;;;;;7.80;3.20;;;;;;;;;;4840042;29;20050;-68
2022/10/31 06:26:57;;;;;;;9.25;3.13;;;;;;;;;;4853783;29;20571;-67
2022/10/31 06:29:28;;;;;;;5.72;2.53;;;;;;;;;;4886644;29;20056;-67
2022/10/31 06:32:09;;;;;;;5.47;2.20;;;;;;;;;;4876799;29;20414;-67
2022/10/31 06:34:44;;;;;;;5.82;2.47;;;;;;;;;;4876833;29;20052;-69
2022/10/31 06:37:15;;;;;;;6.90;2.85;;;;;;;;;;4876899;29;20062;-67
2022/10/31 06:39:49;;;;;;;10.45;3.83;;;;;;;;;;4895485;29;20057;-67
2022/10/31 06:42:19;;;;;;;14.82;5.10;;;;;;;;;;4895224;29;20072;-68
2022/10/31 06:44:49;;;;;;;16.52;6.38;;;;;;;;;;4895287;29;20068;-69
2022/10/31 06:47:31;;;;;;;13.85;5.13;;;;;;;;;;4895479;29;20060;-69
2022/10/31 06:50:18;;;;;;;12.85;5.45;;;;;;;;;;4876778;29;20382;-67
2022/10/31 06:52:58;;;;;;;14.77;5.60;;;;;;;;;;4895180;29;20056;-69
2022/10/31 06:55:29;;;;;;;16.13;6.30;;;;;;;;;;4910520;29;20056;-68
2022/10/31 06:58:00;;;;;;;16.63;6.13;;;;;;;;;;4876024;29;20049;-68
2022/10/31 07:00:32;;;;;;;19.48;5.80;;;;;;;;;;4895055;29;20071;-67
2022/10/31 07:03:10;;;;;;;18.83;6.47;;;;;;;;;;4884447;29;20207;-68
2022/10/31 07:05:41;;;;;;;17.02;6.30;;;;;;;;;;4857733;29;20427;-68
2022/10/31 07:08:14;;;;;;;17.38;6.72;;;;;;;;;;4875077;29;20179;-69
2022/10/31 07:10:55;;;;;;;14.02;5.15;;;;;;;;;;4894806;29;20118;-68
2022/10/31 07:13:26;;;;;;;14.10;5.43;;;;;;;;;;4867657;29;20252;-67
2022/10/31 07:16:07;;;;;;;12.70;5.75;;;;;;;;;;4872084;29;20042;-67
2022/10/31 07:18:38;;;;;;;14.50;6.18;;;;;;;;;;4857481;29;20053;-68
2022/10/31 07:21:09;;;;;;;14.00;6.05;;;;;;;;;;4876014;29;20045;-68
2022/10/31 07:23:39;;;;;;;14.52;6.40;;;;;;;;;;4876310;29;20056;-68
2022/10/31 07:26:38;;;;;;;15.52;6.18;;;;;;;;;;4845828;29;20179;-67
2022/10/31 07:29:08;;;;;;;16.63;5.32;;;;;;;;;;4839949;29;20545;-68
2022/10/31 07:31:39;;;;;;;10.93;4.93;;;;;;;;;;4857288;29;20054;-67
2022/10/31 07:34:15;;;;;;;12.90;5.13;;;;;;;;;;4892868;29;20497;-67
2022/10/31 07:37:12;;;;;;;9.93;4.63;;;;;;;;;;4846771;29;20064;-68
2022/10/31 07:39:43;;;;;;;6.80;3.22;;;;;;;;;;4894460;29;20056;-67
2022/10/31 07:42:13;;;;;;;10.10;3.90;;;;;;;;;;4875504;29;20059;-67
2022/10/31 07:44:45;;;;;;;8.82;4.13;;;;;;;;;;4827293;29;20422;-68
2022/10/31 07:47:49;;;;;;;7.40;3.22;;;;;;;;;;4855660;29;20479;-67
2022/10/31 07:50:37;;;;;;;8.50;3.55;;;;;;;;;;4821187;29;20058;-67
2022/10/31 07:53:25;;;;;;;7.53;3.42;;;;;;;;;;4820974;29;20527;-68
2022/10/31 07:56:21;;;;;;;9.25;3.78;;;;;;;;;;4820037;29;20061;-67
2022/10/31 07:58:53;;;;;;;11.00;3.55;;;;;;;;;;4829013;29;20542;-68
2022/10/31 08:01:23;;;;;;;7.53;3.90;;;;;;;;;;4835241;29;20416;-68
2022/10/31 08:04:13;;;;;;;12.15;3.85;;;;;;;;;;4836926;29;20054;-68
2022/10/31 08:07:01;;;;;;;7.15;2.95;;;;;;;;;;4839065;29;20062;-68
2022/10/31 08:09:36;;;;;;;6.45;2.70;;;;;;;;;;4860961;29;20775;-67
2022/10/31 08:12:18;;;;;;;5.75;2.97;;;;;;;;;;4887154;29;20064;-67
2022/10/31 08:14:48;;;;;;;4.60;2.10;;;;;;;;;;4905771;29;20056;-67
2022/10/31 08:17:20;;;;;;;5.15;2.05;;;;;;;;;;4893675;29;20133;-66
2022/10/31 08:19:58;;;;;;;3.65;1.50;;;;;;;;;;4902465;29;20053;-67
2022/10/31 08:22:33;;;;;;;3.10;1.52;;;;;;;;;;4916910;29;20053;-68
2022/10/31 08:25:12;;;;;;;4.47;1.42;;;;;;;;;;4923965;29;20079;-67
2022/10/31 08:27:43;;;;;;;3.38;1.40;;;;;;;;;;4950326;28;20055;-67
2022/10/31 08:30:19;;;;;;;6.20;1.67;;;;;;;;;;4950551;29;20051;-68
2022/10/31 08:33:12;;;;;;;3.35;1.73;;;;;;;;;;4950653;29;20055;-68
2022/10/31 08:36:05;;;;;;;4.07;1.52;;;;;;;;;;4976319;28;20050;-67
2022/10/31 08:38:54;;;;;;;4.65;1.70;;;;;;;;;;4998594;28;20053;-67
2022/10/31 08:41:31;;;;;;;3.95;1.83;;;;;;;;;;4989088;28;20058;-67
2022/10/31 08:44:01;;;;;;;3.25;1.80;;;;;;;;;;4969727;28;20059;-68
2022/10/31 08:46:32;;;;;;;5.88;1.63;;;;;;;;;;4946449;29;20056;-67
2022/10/31 08:49:02;;;;;;;5.10;1.70;;;;;;;;;;4928968;29;20052;-67
2022/10/31 08:51:33;;;;;;;4.90;1.50;;;;;;;;;;4916658;29;20052;-67
2022/10/31 08:54:03;;;;;;;4.32;1.90;;;;;;;;;;4898159;29;20084;-67
2022/10/31 08:57:11;;;;;;;5.93;1.50;;;;;;;;;;4912636;29;20212;-67
2022/10/31 08:59:44;;;;;;;2.42;1.27;;;;;;;;;;4878596;29;20427;-67
2022/10/31 09:02:59;;;;;;;3.55;1.50;;;;;;;;;;4838043;29;20054;-67
2022/10/31 09:05:33;;;;;;;3.22;1.48;;;;;;;;;;4835943;29;20435;-70
2022/10/31 09:08:05;;;;;;;4.22;1.33;;;;;;;;;;4855918;29;20406;-68
2022/10/31 09:10:45;;;;;;;5.35;1.33;;;;;;;;;;4855971;29;20054;-68
2022/10/31 09:13:21;;;;;;;4.03;1.20;;;;;;;;;;4837722;29;20058;-67
2022/10/31 09:16:22;;;;;;;36.88;17.80;;;;;;;;;;4837739;29;20084;-67
2022/10/31 09:18:52;;;;;;;6.13;2.25;;;;;;;;;;4815427;29;20070;-69
2022/10/31 09:21:23;;;;;;;4.72;1.80;;;;;;;;;;4830742;29;20054;-68
2022/10/31 09:23:54;;;;;;;4.03;1.52;;;;;;;;;;4826048;29;20640;-67
2022/10/31 09:26:23;;;;;;;3.00;1.63;;;;;;;;;;4818464;29;20062;-67
2022/10/31 09:29:13;;;;;;;2.47;1.42;;;;;;;;;;4795101;29;20055;-68
2022/10/31 09:31:44;;;;;;;3.45;1.60;;;;;;;;;;4819533;29;20078;-68
2022/10/31 09:34:38;;;;;;;4.65;2.13;;;;;;;;;;4819465;29;20058;-67
2022/10/31 09:37:14;;;;;;;3.83;1.58;;;;;;;;;;4863846;29;20060;-67
2022/10/31 09:39:45;;;;;;;5.20;2.60;;;;;;;;;;4895683;29;20060;-67
2022/10/31 09:43:02;;;;;;;4.82;2.20;;;;;;;;;;4911545;29;20064;-68
2022/10/31 09:45:54;;;;;;;6.10;2.10;;;;;;;;;;4863856;29;20068;-68
2022/10/31 09:49:05;;;;;;;7.57;2.78;;;;;;;;;;4921339;29;20424;-68
2022/10/31 09:52:00;;;;;;;7.55;3.17;;;;;;;;;;4896286;29;20056;-68
2022/10/31 09:55:14;;;;;;;9.30;3.08;;;;;;;;;;4896382;29;20052;-68
2022/10/31 09:57:46;;;;;;;6.95;2.65;;;;;;;;;;4877617;29;20099;-67
2022/10/31 10:00:20;;;;;;;6.22;2.97;;;;;;;;;;4877740;29;20060;-68
2022/10/31 10:02:56;;;;;;;7.13;2.58;;;;;;;;;;4896162;29;20052;-67
2022/10/31 10:05:41;;;;;;;5.68;2.88;;;;;;;;;;4877511;29;20827;-67
2022/10/31 10:08:24;;;;;;;6.53;2.97;;;;;;;;;;4860459;29;20060;-68
2022/10/31 10:11:15;;;;;;;6.72;3.13;;;;;;;;;;4840711;29;20066;-67
2022/10/31 10:14:16;;;;;;;7.07;3.50;;;;;;;;;;4858947;29;20060;-68
2022/10/31 10:17:07;;;;;;;13.13;3.25;;;;;;;;;;4858544;29;20065;-67
2022/10/31 10:19:48;;;;;;;6.35;3.40;;;;;;;;;;4866193;29;20065;-67
2022/10/31 10:22:36;;;;;;;9.65;3.35;;;;;;;;;;4840727;29;20078;-67
2022/10/31 10:25:28;;;;;;;7.35;3.80;;;;;;;;;;4840360;29;20080;-68
2022/10/31 10:28:19;;;;;;;7.40;3.30;;;;;;;;;;4844426;29;20076;-67
2022/10/31 10:30:55;;;;;;;8.60;4.05;;;;;;;;;;4877116;29;20045;-67
2022/10/31 10:33:40;;;;;;;10.57;4.60;;;;;;;;;;4895939;29;20056;-68
2022/10/31 10:36:21;;;;;;;7.60;4.38;;;;;;;;;;4896038;29;20057;-67
2022/10/31 10:38:54;;;;;;;10.52;5.28;;;;;;;;;;4911884;29;20073;-68
2022/10/31 10:41:30;;;;;;;9.65;4.80;;;;;;;;;;4931222;29;20060;-67
2022/10/31 10:44:09;;;;;;;10.68;4.60;;;;;;;;;;4967758;28;20170;-68
2022/10/31 10:49:46;;;;;;;8.32;3.75;;;;;;;;;;4952295;28;20165;-67
2022/10/31 10:52:40;;;;;;;10.30;4.20;;;;;;;;;;4972694;28;20058;-67
2022/10/31 10:55:37;;;;;;;10.02;4.68;;;;;;;;;;4976187;28;20535;-68
2022/10/31 10:58:09;;;;;;;10.23;5.40;;;;;;;;;;5033129;28;20041;-68
2022/10/31 11:00:42;;;;;;;10.48;5.00;;;;;;;;;;5030074;28;20057;-68
2022/10/31 11:03:13;;;;;;;9.95;4.65;;;;;;;;;;5030479;28;20092;-68
2022/10/31 11:05:58;;;;;;;9.18;4.38;;;;;;;;;;5040810;28;20061;-67
2022/10/31 11:08:31;;;;;;;9.55;4.53;;;;;;;;;;5017217;28;20057;-67
2022/10/31 11:11:05;;;;;;;9.65;4.25;;;;;;;;;;5017276;28;20590;-67
2022/10/31 11:13:36;;;;;;;8.77;4.40;;;;;;;;;;5046952;28;20091;-68
2022/10/31 11:16:26;;;;;;;7.90;3.80;;;;;;;;;;5039934;28;20572;-67
2022/10/31 11:19:15;;;;;;;8.90;4.47;;;;;;;;;;5040849;28;20057;-68
2022/10/31 11:21:47;;;;;;;7.45;3.75;;;;;;;;;;5044524;28;20053;-67
2022/10/31 11:24:27;;;;;;;7.95;4.18;;;;;;;;;;5049830;28;20409;-67
2022/10/31 11:27:22;;;;;;;7.18;3.75;;;;;;;;;;5056476;28;20532;-69
2022/10/31 11:29:52;;;;;;;12.40;4.72;;;;;;;;;;5070038;28;20044;-68
2022/10/31 11:32:29;;;;;;;9.60;4.10;;;;;;;;;;5069302;28;20067;-68
2022/10/31 11:35:03;;;;;;;7.75;3.92;;;;;;;;;;5029324;28;20046;-68
2022/10/31 11:37:41;;;;;;;7.53;4.00;;;;;;;;;;5040449;28;20052;-67
2022/10/31 11:40:20;;;;;;;8.02;4.32;;;;;;;;;;5013608;28;20068;-67
2022/10/31 11:42:52;;;;;;;7.22;3.72;;;;;;;;;;5022030;28;20044;-68
2022/10/31 11:45:25;;;;;;;7.43;4.05;;;;;;;;;;5031551;28;20068;-67
2022/10/31 11:47:58;;;;;;;9.02;3.38;;;;;;;;;;5013576;28;20057;-69
2022/10/31 11:50:40;;;;;;;7.70;4.18;;;;;;;;;;5013125;28;20065;-69
2022/10/31 11:53:35;;;;;;;8.25;3.85;;;;;;;;;;5029691;28;20210;-67
2022/10/31 11:56:16;;;;;;;10.95;4.25;;;;;;;;;;5034944;28;20525;-67
2022/10/31 11:59:05;;;;;;;12.00;5.28;;;;;;;;;;5046554;28;20055;-67
2022/10/31 12:01:35;;;;;;;7.72;4.18;;;;;;;;;;5032408;28;20053;-67
2022/10/31 12:04:14;;;;;;;9.15;3.83;;;;;;;;;;5049432;28;20510;-67
2022/10/31 12:06:46;;;;;;;6.95;3.70;;;;;;;;;;4999613;28;20124;-68
2022/10/31 12:09:24;;;;;;;9.25;3.95;;;;;;;;;;5049080;28;20416;-68
2022/10/31 12:12:11;;;;;;;8.77;4.68;;;;;;;;;;5057575;28;20056;-67
2022/10/31 12:15:06;;;;;;;8.65;3.85;;;;;;;;;;5068851;28;20055;-68
2022/10/31 12:17:45;;;;;;;8.18;4.18;;;;;;;;;;5019272;28;20068;-68
2022/10/31 12:20:41;;;;;;;7.85;4.18;;;;;;;;;;5068955;28;20052;-67
2022/10/31 12:23:40;;;;;;;10.32;4.80;;;;;;;;;;5068108;28;20052;-68
2022/10/31 12:26:39;;;;;;;9.48;4.55;;;;;;;;;;5006618;28;20061;-68
2022/10/31 12:29:15;;;;;;;9.13;4.35;;;;;;;;;;4969328;28;20059;-67
2022/10/31 12:32:10;;;;;;;9.45;4.43;;;;;;;;;;4929527;29;20056;-68
2022/10/31 12:34:43;;;;;;;7.72;4.10;;;;;;;;;;4931357;29;20160;-74
2022/10/31 12:37:29;;;;;;;8.55;3.63;;;;;;;;;;4915683;29;20055;-71
2022/10/31 12:40:11;;;;;;;7.72;4.50;;;;;;;;;;4930276;29;20056;-70
2022/10/31 12:43:14;;;;;;;8.35;3.65;;;;;;;;;;4915396;29;20561;-73
2022/10/31 12:45:44;;;;;;;9.02;4.32;;;;;;;;;;4890102;29;20072;-71
2022/10/31 12:48:28;;;;;;;9.73;4.80;;;;;;;;;;4862538;29;20127;-69
2022/10/31 12:51:07;;;;;;;9.82;5.30;;;;;;;;;;4863656;29;20429;-69
2022/10/31 12:53:38;;;;;;;9.18;4.60;;;;;;;;;;4893362;29;20063;-69
2022/10/31 12:56:35;;;;;;;7.78;4.20;;;;;;;;;;4893392;29;20068;-68
2022/10/31 12:59:22;;;;;;;7.97;4.50;;;;;;;;;;4846764;29;20064;-68
2022/10/31 13:02:01;;;;;;;9.50;4.55;;;;;;;;;;4894730;29;20480;-67
2022/10/31 13:04:46;;;;;;;7.72;3.88;;;;;;;;;;4970969;28;20526;-68
2022/10/31 13:07:23;;;;;;;9.30;4.13;;;;;;;;;;4960049;28;20046;-68
2022/10/31 13:10:09;;;;;;;7.57;4.10;;;;;;;;;;4992734;28;20062;-68
2022/10/31 13:12:41;;;;;;;17.98;10.88;;;;;;;;;;5010205;28;20053;-68
2022/10/31 13:15:25;;;;;;;9.68;4.93;;;;;;;;;;4953264;28;20051;-68
2022/10/31 13:17:59;;;;;;;9.48;5.38;;;;;;;;;;4960422;28;20059;-68
2022/10/31 13:20:55;;;;;;;9.35;4.95;;;;;;;;;;4922138;29;20078;-70
2022/10/31 13:23:46;;;;;;;7.82;4.13;;;;;;;;;;4924337;29;20059;-72
2022/10/31 13:26:37;;;;;;;7.25;3.90;;;;;;;;;;4935114;29;20060;-71
2022/10/31 13:29:19;;;;;;;5.40;2.95;;;;;;;;;;4952308;28;20624;-73
2022/10/31 13:31:52;;;;;;;7.35;3.25;;;;;;;;;;4966743;28;20066;-73
2022/10/31 13:34:40;;;;;;;9.70;5.60;;;;;;;;;;4929226;29;20064;-71
2022/10/31 13:37:22;;;;;;;7.35;4.00;;;;;;;;;;4934695;29;20051;-72
2022/10/31 13:40:10;;;;;;;6.28;3.75;;;;;;;;;;4979691;28;20450;-72
2022/10/31 13:42:58;;;;;;;9.23;4.95;;;;;;;;;;5012691;28;20068;-72
2022/10/31 13:45:29;;;;;;;8.23;4.38;;;;;;;;;;4972420;28;20061;-72
2022/10/31 13:48:32;;;;;;;8.05;4.13;;;;;;;;;;4985239;28;20049;-70
2022/10/31 13:51:10;;;;;;;7.57;3.47;;;;;;;;;;4973781;28;20049;-70
2022/10/31 13:53:43;;;;;;;6.55;4.00;;;;;;;;;;4996467;28;20053;-69
2022/10/31 13:56:18;;;;;;;6.65;3.42;;;;;;;;;;5012560;28;20049;-68
2022/10/31 13:59:19;;;;;;;6.60;2.75;;;;;;;;;;5002628;28;20054;-69
2022/10/31 14:02:02;;;;;;;4.97;2.67;;;;;;;;;;4999073;28;20471;-69
2022/10/31 14:04:55;;;;;;;6.30;2.53;;;;;;;;;;5031006;28;20527;-70
2022/10/31 14:07:27;;;;;;;5.50;2.60;;;;;;;;;;5029391;28;20065;-68
2022/10/31 14:10:35;;;;;;;5.03;2.67;;;;;;;;;;5031407;28;20057;-69
2022/10/31 14:13:08;;;;;;;3.03;1.70;;;;;;;;;;5017051;28;20509;-70
2022/10/31 14:15:40;;;;;;;2.95;0.70;;;;;;;;;;5023154;28;20056;-70
2022/10/31 14:18:34;;;;;;;0.20;0.20;;;;;;;;;;5029634;28;20125;-68
2022/10/31 14:21:22;;;;;;;3.35;0.30;;;;;;;;;;4980911;28;20061;-66
2022/10/31 14:23:53;;;;;;;0.43;0.43;;;;;;;;;;5027171;28;20501;-66
2022/10/31 14:26:26;;;;;;;2.22;0.30;;;;;;;;;;5030443;28;20049;-65
2022/10/31 14:29:01;;;;;;;2.05;0.75;;;;;;;;;;5030003;28;20074;-65
2022/10/31 14:31:43;;;;;;;1.38;0.20;;;;;;;;;;5018212;28;20057;-67
2022/10/31 14:34:54;;;;;;;3.55;0.13;;;;;;;;;;5001100;28;20903;-68
2022/10/31 14:37:42;;;;;;;2.38;0.30;;;;;;;;;;4957399;28;20527;-68
2022/10/31 14:40:36;;;;;;;1.92;0.20;;;;;;;;;;4923283;28;20446;-69
2022/10/31 14:43:24;;;;;;;1.50;0.10;;;;;;;;;;4954687;28;20537;-68
2022/10/31 14:46:13;;;;;;;0.20;0.10;;;;;;;;;;4960679;28;20066;-70
2022/10/31 14:49:12;;;;;;;0.20;0.20;;;;;;;;;;4969339;28;20052;-68
2022/10/31 14:51:46;;;;;;;1.27;0.30;;;;;;;;;;4996688;28;20058;-70
2022/10/31 14:54:31;;;;;;;0.13;0.13;;;;;;;;;;4999014;28;20053;-74
2022/10/31 14:57:23;;;;;;;0.40;0.20;;;;;;;;;;4988954;28;20054;-70
2022/10/31 15:00:04;;;;;;;1.98;0.20;;;;;;;;;;4954396;28;20077;-70
2022/10/31 15:02:38;;;;;;;0.25;0.15;;;;;;;;;;4937384;29;20451;-71
2022/10/31 15:05:12;;;;;;;0.50;0.20;;;;;;;;;;4970715;28;20059;-71
2022/10/31 15:07:55;;;;;;;1.40;0.43;;;;;;;;;;4946249;28;20062;-69
2022/10/31 15:10:32;;;;;;;0.52;0.52;;;;;;;;;;4975746;28;20066;-71
2022/10/31 15:13:19;;;;;;;0.30;0.20;;;;;;;;;;4951864;28;20077;-70
2022/10/31 15:15:54;;;;;;;0.30;0.10;;;;;;;;;;5001097;28;20060;-71
2022/10/31 15:18:27;;;;;;;0.20;0.20;;;;;;;;;;5049133;28;20057;-69
2022/10/31 15:20:57;;;;;;;0.70;0.43;;;;;;;;;;5017141;28;20057;-68
2022/10/31 15:23:32;;;;;;;1.65;0.20;;;;;;;;;;5051969;28;20552;-68
2022/10/31 15:26:05;;;;;;;1.52;0.30;;;;;;;;;;5049012;28;20049;-67
2022/10/31 15:28:35;;;;;;;1.48;0.52;;;;;;;;;;5021576;28;20535;-66
2022/10/31 15:31:13;;;;;;;0.45;0.20;;;;;;;;;;5010875;28;20069;-68
2022/10/31 15:33:47;;;;;;;;;;;;;;;;;;5005163;28;20054;-69
2022/10/31 15:36:25;;;;;;;1.48;0.20;;;;;;;;;;5008485;28;19933;-68
2022/10/31 15:38:59;;;;;;;0.45;0.13;;;;;;;;;;4985410;28;20053;-68
2022/10/31 15:41:52;;;;;;;0.38;0.20;;;;;;;;;;4976900;28;20065;-68
2022/10/31 15:44:29;;;;;;;1.00;0.17;;;;;;;;;;5015693;28;20053;-67
2022/10/31 15:47:03;;;;;;;0.90;0.45;;;;;;;;;;5047168;28;20500;-67
2022/10/31 15:49:41;;;;;;;0.13;0.13;;;;;;;;;;4992953;28;20505;-68
2022/10/31 15:52:35;;;;;;;1.83;0.20;;;;;;;;;;4952805;28;20058;-68
2022/10/31 15:55:17;;;;;;;0.30;0.30;;;;;;;;;;4958567;28;20070;-69
2022/10/31 15:57:51;;;;;;;0.10;0.10;;;;;;;;;;4943090;28;20047;-69